sensor_id;sensor_type;location;lat;lon;timestamp;temperature;humidity
18392;DHT22;9322;50.932;5.318;2023-12-28T00:01:20;10.30;1.40
18392;DHT22;9322;50.932;5.318;2023-12-28T00:03:47;10.40;1.40
18392;DHT22;9322;50.932;5.318;2023-12-28T00:06:13;10.30;1.40
18392;DHT22;9322;50.932;5.318;2023-12-28T00:08:39;10.30;1.40
18392;DHT22;9322;50.932;5.318;2023-12-28T00:11:05;10.30;1.40
18392;DHT22;9322;50.932;5.318;2023-12-28T00:13:30;10.20;1.40
18392;DHT22;9322;50.932;5.318;2023-12-28T00:15:56;10.20;1.40
18392;DHT22;9322;50.932;5.318;2023-12-28T00:18:22;10.20;1.40
18392;DHT22;9322;50.932;5.318;2023-12-28T00:20:47;10.20;1.40
18392;DHT22;9322;50.932;5.318;2023-12-28T00:23:13;10.20;1.40
18392;DHT22;9322;50.932;5.318;2023-12-28T00:25:39;10.20;1.40
18392;DHT22;9322;50.932;5.318;2023-12-28T00:28:05;10.20;1.40
18392;DHT22;9322;50.932;5.318;2023-12-28T00:30:30;10.10;1.40
18392;DHT22;9322;50.932;5.318;2023-12-28T00:32:58;10.10;1.40
18392;DHT22;9322;50.932;5.318;2023-12-28T00:35:24;10.30;1.40
18392;DHT22;9322;50.932;5.318;2023-12-28T00:37:49;10.20;1.40
18392;DHT22;9322;50.932;5.318;2023-12-28T00:40:15;10.30;1.40
18392;DHT22;9322;50.932;5.318;2023-12-28T00:42:41;10.40;1.40
18392;DHT22;9322;50.932;5.318;2023-12-28T00:45:08;10.20;1.40
18392;DHT22;9322;50.932;5.318;2023-12-28T00:47:34;10.20;1.40
18392;DHT22;9322;50.932;5.318;2023-12-28T00:50:00;10.10;1.40
18392;DHT22;9322;50.932;5.318;2023-12-28T00:52:26;10.10;1.40
18392;DHT22;9322;50.932;5.318;2023-12-28T00:54:51;10.00;1.40
18392;DHT22;9322;50.932;5.318;2023-12-28T00:57:17;10.00;1.40
18392;DHT22;9322;50.932;5.318;2023-12-28T00:59:43;10.00;1.40
18392;DHT22;9322;50.932;5.318;2023-12-28T01:02:09;10.10;1.40
18392;DHT22;9322;50.932;5.318;2023-12-28T01:04:35;10.10;1.40
18392;DHT22;9322;50.932;5.318;2023-12-28T01:07:01;10.10;1.40
18392;DHT22;9322;50.932;5.318;2023-12-28T01:09:28;10.10;1.40
18392;DHT22;9322;50.932;5.318;2023-12-28T01:11:54;10.10;1.40
18392;DHT22;9322;50.932;5.318;2023-12-28T01:14:19;10.10;1.40
18392;DHT22;9322;50.932;5.318;2023-12-28T01:16:45;10.00;1.40
18392;DHT22;9322;50.932;5.318;2023-12-28T01:19:11;10.10;1.40
18392;DHT22;9322;50.932;5.318;2023-12-28T01:21:37;10.10;1.40
18392;DHT22;9322;50.932;5.318;2023-12-28T01:24:02;10.10;1.40
18392;DHT22;9322;50.932;5.318;2023-12-28T01:26:28;10.20;1.40
18392;DHT22;9322;50.932;5.318;2023-12-28T01:28:54;10.10;1.40
18392;DHT22;9322;50.932;5.318;2023-12-28T01:31:20;10.20;1.40
18392;DHT22;9322;50.932;5.318;2023-12-28T01:33:46;10.20;1.40
18392;DHT22;9322;50.932;5.318;2023-12-28T01:36:18;10.30;1.40
18392;DHT22;9322;50.932;5.318;2023-12-28T01:38:45;10.40;1.40
18392;DHT22;9322;50.932;5.318;2023-12-28T01:41:11;10.30;1.40
18392;DHT22;9322;50.932;5.318;2023-12-28T01:43:38;10.40;1.40
18392;DHT22;9322;50.932;5.318;2023-12-28T01:46:05;10.40;1.40
18392;DHT22;9322;50.932;5.318;2023-12-28T01:48:32;10.50;1.40
18392;DHT22;9322;50.932;5.318;2023-12-28T01:50:58;10.50;1.40
18392;DHT22;9322;50.932;5.318;2023-12-28T01:53:24;10.60;1.40
18392;DHT22;9322;50.932;5.318;2023-12-28T01:55:50;10.70;1.40
18392;DHT22;9322;50.932;5.318;2023-12-28T01:58:16;10.70;1.40
18392;DHT22;9322;50.932;5.318;2023-12-28T02:00:43;10.70;1.40
18392;DHT22;9322;50.932;5.318;2023-12-28T02:03:10;10.60;1.40
18392;DHT22;9322;50.932;5.318;2023-12-28T02:05:37;10.60;1.40
18392;DHT22;9322;50.932;5.318;2023-12-28T02:08:10;10.60;1.40
18392;DHT22;9322;50.932;5.318;2023-12-28T02:10:38;10.60;1.40
18392;DHT22;9322;50.932;5.318;2023-12-28T02:13:04;10.70;1.40
18392;DHT22;9322;50.932;5.318;2023-12-28T02:15:30;10.60;1.40
18392;DHT22;9322;50.932;5.318;2023-12-28T02:20:29;10.60;1.40
18392;DHT22;9322;50.932;5.318;2023-12-28T02:22:56;10.60;1.40
18392;DHT22;9322;50.932;5.318;2023-12-28T02:25:22;10.50;1.40
18392;DHT22;9322;50.932;5.318;2023-12-28T02:27:49;10.50;1.40
18392;DHT22;9322;50.932;5.318;2023-12-28T02:30:20;10.50;1.40
18392;DHT22;9322;50.932;5.318;2023-12-28T02:33:11;10.30;1.40
18392;DHT22;9322;50.932;5.318;2023-12-28T02:35:45;10.40;1.40
18392;DHT22;9322;50.932;5.318;2023-12-28T02:38:14;10.30;1.40
18392;DHT22;9322;50.932;5.318;2023-12-28T02:40:42;10.20;1.40
18392;DHT22;9322;50.932;5.318;2023-12-28T02:43:10;10.20;1.40
18392;DHT22;9322;50.932;5.318;2023-12-28T02:45:37;10.20;1.40
18392;DHT22;9322;50.932;5.318;2023-12-28T02:48:04;10.20;1.40
18392;DHT22;9322;50.932;5.318;2023-12-28T02:50:30;10.20;1.40
18392;DHT22;9322;50.932;5.318;2023-12-28T02:52:57;10.20;1.40
18392;DHT22;9322;50.932;5.318;2023-12-28T02:55:23;10.20;1.40
18392;DHT22;9322;50.932;5.318;2023-12-28T02:57:53;10.20;1.40
18392;DHT22;9322;50.932;5.318;2023-12-28T03:00:26;10.20;1.40
18392;DHT22;9322;50.932;5.318;2023-12-28T03:02:52;10.20;1.40
18392;DHT22;9322;50.932;5.318;2023-12-28T03:05:18;10.10;1.40
18392;DHT22;9322;50.932;5.318;2023-12-28T03:07:44;10.10;1.40
18392;DHT22;9322;50.932;5.318;2023-12-28T03:10:10;10.10;1.40
18392;DHT22;9322;50.932;5.318;2023-12-28T03:12:38;10.10;1.40
18392;DHT22;9322;50.932;5.318;2023-12-28T03:15:05;10.00;1.40
18392;DHT22;9322;50.932;5.318;2023-12-28T03:17:31;10.10;1.40
18392;DHT22;9322;50.932;5.318;2023-12-28T03:20:01;10.10;1.40
18392;DHT22;9322;50.932;5.318;2023-12-28T03:22:27;10.10;1.40
18392;DHT22;9322;50.932;5.318;2023-12-28T03:24:52;10.10;1.40
18392;DHT22;9322;50.932;5.318;2023-12-28T03:27:18;10.00;1.40
18392;DHT22;9322;50.932;5.318;2023-12-28T03:29:44;10.10;1.40
18392;DHT22;9322;50.932;5.318;2023-12-28T03:32:10;10.10;1.40
18392;DHT22;9322;50.932;5.318;2023-12-28T03:34:36;10.10;1.40
18392;DHT22;9322;50.932;5.318;2023-12-28T03:37:02;10.10;1.40
18392;DHT22;9322;50.932;5.318;2023-12-28T03:39:28;10.10;1.40
18392;DHT22;9322;50.932;5.318;2023-12-28T03:41:53;10.00;1.40
18392;DHT22;9322;50.932;5.318;2023-12-28T03:44:20;10.10;1.40
18392;DHT22;9322;50.932;5.318;2023-12-28T03:46:50;10.00;1.40
18392;DHT22;9322;50.932;5.318;2023-12-28T03:49:20;9.90;1.40
18392;DHT22;9322;50.932;5.318;2023-12-28T03:51:49;10.00;1.40
18392;DHT22;9322;50.932;5.318;2023-12-28T03:54:19;10.10;1.40
18392;DHT22;9322;50.932;5.318;2023-12-28T03:56:46;10.20;1.40
18392;DHT22;9322;50.932;5.318;2023-12-28T03:59:12;10.20;1.40
18392;DHT22;9322;50.932;5.318;2023-12-28T04:01:38;10.30;1.40
18392;DHT22;9322;50.932;5.318;2023-12-28T04:04:04;10.40;1.40
18392;DHT22;9322;50.932;5.318;2023-12-28T04:06:30;10.40;1.40
18392;DHT22;9322;50.932;5.318;2023-12-28T04:08:56;10.40;1.40
18392;DHT22;9322;50.932;5.318;2023-12-28T04:11:21;10.40;1.40
18392;DHT22;9322;50.932;5.318;2023-12-28T04:13:47;10.50;1.40
18392;DHT22;9322;50.932;5.318;2023-12-28T04:16:14;10.40;1.40
18392;DHT22;9322;50.932;5.318;2023-12-28T04:18:43;10.30;1.40
18392;DHT22;9322;50.932;5.318;2023-12-28T04:21:10;10.20;1.40
18392;DHT22;9322;50.932;5.318;2023-12-28T04:23:37;10.30;1.40
18392;DHT22;9322;50.932;5.318;2023-12-28T04:26:03;10.30;1.40
18392;DHT22;9322;50.932;5.318;2023-12-28T04:28:29;10.30;1.40
18392;DHT22;9322;50.932;5.318;2023-12-28T04:30:54;10.40;1.40
18392;DHT22;9322;50.932;5.318;2023-12-28T04:33:20;10.40;1.40
18392;DHT22;9322;50.932;5.318;2023-12-28T04:35:46;10.40;1.40
18392;DHT22;9322;50.932;5.318;2023-12-28T04:38:12;10.40;1.40
18392;DHT22;9322;50.932;5.318;2023-12-28T04:40:38;10.40;1.40
18392;DHT22;9322;50.932;5.318;2023-12-28T04:43:04;10.40;1.40
18392;DHT22;9322;50.932;5.318;2023-12-28T04:45:30;10.40;1.40
18392;DHT22;9322;50.932;5.318;2023-12-28T04:47:55;10.40;1.40
18392;DHT22;9322;50.932;5.318;2023-12-28T04:50:21;10.40;1.40
18392;DHT22;9322;50.932;5.318;2023-12-28T04:52:47;10.50;1.40
18392;DHT22;9322;50.932;5.318;2023-12-28T04:55:13;10.50;1.40
18392;DHT22;9322;50.932;5.318;2023-12-28T04:57:41;10.50;1.40
18392;DHT22;9322;50.932;5.318;2023-12-28T05:00:07;10.60;1.40
18392;DHT22;9322;50.932;5.318;2023-12-28T05:02:34;10.40;1.40
18392;DHT22;9322;50.932;5.318;2023-12-28T05:05:00;10.50;1.40
18392;DHT22;9322;50.932;5.318;2023-12-28T05:07:26;10.50;1.40
18392;DHT22;9322;50.932;5.318;2023-12-28T05:09:51;10.50;1.40
18392;DHT22;9322;50.932;5.318;2023-12-28T05:12:17;10.50;1.40
18392;DHT22;9322;50.932;5.318;2023-12-28T05:14:43;10.60;1.40
18392;DHT22;9322;50.932;5.318;2023-12-28T05:17:09;10.60;1.40
18392;DHT22;9322;50.932;5.318;2023-12-28T05:19:34;10.50;1.40
18392;DHT22;9322;50.932;5.318;2023-12-28T05:22:00;10.60;1.40
18392;DHT22;9322;50.932;5.318;2023-12-28T05:24:31;10.60;1.40
18392;DHT22;9322;50.932;5.318;2023-12-28T05:26:57;10.50;1.40
18392;DHT22;9322;50.932;5.318;2023-12-28T05:29:22;10.60;1.40
18392;DHT22;9322;50.932;5.318;2023-12-28T05:31:48;10.50;1.40
18392;DHT22;9322;50.932;5.318;2023-12-28T05:34:14;10.50;1.40
18392;DHT22;9322;50.932;5.318;2023-12-28T05:36:40;10.50;1.40
18392;DHT22;9322;50.932;5.318;2023-12-28T05:39:07;10.40;1.40
18392;DHT22;9322;50.932;5.318;2023-12-28T05:41:35;10.40;1.40
18392;DHT22;9322;50.932;5.318;2023-12-28T05:44:00;10.40;1.40
18392;DHT22;9322;50.932;5.318;2023-12-28T05:46:26;10.30;1.40
18392;DHT22;9322;50.932;5.318;2023-12-28T05:48:52;10.30;1.40
18392;DHT22;9322;50.932;5.318;2023-12-28T05:51:18;10.20;1.40
18392;DHT22;9322;50.932;5.318;2023-12-28T05:53:44;10.20;1.40
18392;DHT22;9322;50.932;5.318;2023-12-28T05:56:10;10.20;1.40
18392;DHT22;9322;50.932;5.318;2023-12-28T05:58:36;10.10;1.40
18392;DHT22;9322;50.932;5.318;2023-12-28T06:01:02;10.10;1.40
18392;DHT22;9322;50.932;5.318;2023-12-28T06:03:31;10.10;1.40
18392;DHT22;9322;50.932;5.318;2023-12-28T06:05:57;10.10;1.40
18392;DHT22;9322;50.932;5.318;2023-12-28T06:08:22;10.10;1.40
18392;DHT22;9322;50.932;5.318;2023-12-28T06:10:49;10.10;1.40
18392;DHT22;9322;50.932;5.318;2023-12-28T06:13:14;10.20;1.40
18392;DHT22;9322;50.932;5.318;2023-12-28T06:15:40;10.20;1.40
18392;DHT22;9322;50.932;5.318;2023-12-28T06:18:06;10.30;1.40
18392;DHT22;9322;50.932;5.318;2023-12-28T06:20:32;10.40;1.40
18392;DHT22;9322;50.932;5.318;2023-12-28T06:22:58;10.50;1.40
18392;DHT22;9322;50.932;5.318;2023-12-28T06:25:29;10.60;1.40
18392;DHT22;9322;50.932;5.318;2023-12-28T06:27:55;10.60;1.40
18392;DHT22;9322;50.932;5.318;2023-12-28T06:30:20;10.60;1.40
18392;DHT22;9322;50.932;5.318;2023-12-28T06:32:46;10.70;1.40
18392;DHT22;9322;50.932;5.318;2023-12-28T06:35:12;10.60;1.40
18392;DHT22;9322;50.932;5.318;2023-12-28T06:37:38;10.70;1.40
18392;DHT22;9322;50.932;5.318;2023-12-28T06:40:04;10.70;1.40
18392;DHT22;9322;50.932;5.318;2023-12-28T06:42:30;10.70;1.40
18392;DHT22;9322;50.932;5.318;2023-12-28T06:44:55;10.50;1.40
18392;DHT22;9322;50.932;5.318;2023-12-28T06:47:21;10.40;1.40
18392;DHT22;9322;50.932;5.318;2023-12-28T06:49:47;10.40;1.40
18392;DHT22;9322;50.932;5.318;2023-12-28T06:52:12;10.40;1.40
18392;DHT22;9322;50.932;5.318;2023-12-28T06:54:38;10.40;1.40
18392;DHT22;9322;50.932;5.318;2023-12-28T06:57:04;10.40;1.40
18392;DHT22;9322;50.932;5.318;2023-12-28T06:59:30;10.40;1.40
18392;DHT22;9322;50.932;5.318;2023-12-28T07:01:55;10.40;1.40
18392;DHT22;9322;50.932;5.318;2023-12-28T07:04:21;10.50;1.40
18392;DHT22;9322;50.932;5.318;2023-12-28T07:06:47;10.50;1.40
18392;DHT22;9322;50.932;5.318;2023-12-28T07:09:13;10.50;1.40
18392;DHT22;9322;50.932;5.318;2023-12-28T07:11:39;10.40;1.40
18392;DHT22;9322;50.932;5.318;2023-12-28T07:14:06;10.30;1.40
18392;DHT22;9322;50.932;5.318;2023-12-28T07:16:32;10.30;1.40
18392;DHT22;9322;50.932;5.318;2023-12-28T07:18:57;10.30;1.40
18392;DHT22;9322;50.932;5.318;2023-12-28T07:21:23;10.30;1.40
18392;DHT22;9322;50.932;5.318;2023-12-28T07:23:49;10.20;1.40
18392;DHT22;9322;50.932;5.318;2023-12-28T07:26:16;10.20;1.40
18392;DHT22;9322;50.932;5.318;2023-12-28T07:28:41;10.30;1.40
18392;DHT22;9322;50.932;5.318;2023-12-28T07:31:10;10.30;1.40
18392;DHT22;9322;50.932;5.318;2023-12-28T07:33:37;10.30;1.40
18392;DHT22;9322;50.932;5.318;2023-12-28T07:36:03;10.30;1.40
18392;DHT22;9322;50.932;5.318;2023-12-28T07:38:31;10.30;1.40
18392;DHT22;9322;50.932;5.318;2023-12-28T07:40:57;10.30;1.40
18392;DHT22;9322;50.932;5.318;2023-12-28T07:43:23;10.30;1.40
18392;DHT22;9322;50.932;5.318;2023-12-28T07:45:48;10.30;1.40
18392;DHT22;9322;50.932;5.318;2023-12-28T07:48:14;10.20;1.40
18392;DHT22;9322;50.932;5.318;2023-12-28T07:50:40;10.20;1.40
18392;DHT22;9322;50.932;5.318;2023-12-28T07:53:06;10.20;1.40
18392;DHT22;9322;50.932;5.318;2023-12-28T07:55:31;10.10;1.40
18392;DHT22;9322;50.932;5.318;2023-12-28T07:57:57;10.20;1.40
18392;DHT22;9322;50.932;5.318;2023-12-28T08:00:23;10.20;1.40
18392;DHT22;9322;50.932;5.318;2023-12-28T08:02:48;10.30;1.40
18392;DHT22;9322;50.932;5.318;2023-12-28T08:05:14;10.10;1.40
18392;DHT22;9322;50.932;5.318;2023-12-28T08:07:40;10.10;1.40
18392;DHT22;9322;50.932;5.318;2023-12-28T08:10:06;10.10;1.40
18392;DHT22;9322;50.932;5.318;2023-12-28T08:12:32;10.10;1.40
18392;DHT22;9322;50.932;5.318;2023-12-28T08:14:59;10.10;1.40
18392;DHT22;9322;50.932;5.318;2023-12-28T08:17:25;10.10;1.40
18392;DHT22;9322;50.932;5.318;2023-12-28T08:19:51;10.10;1.40
18392;DHT22;9322;50.932;5.318;2023-12-28T08:22:17;10.10;1.40
18392;DHT22;9322;50.932;5.318;2023-12-28T08:24:42;10.10;1.40
18392;DHT22;9322;50.932;5.318;2023-12-28T08:27:08;10.20;1.40
18392;DHT22;9322;50.932;5.318;2023-12-28T08:29:34;10.20;1.40
18392;DHT22;9322;50.932;5.318;2023-12-28T08:31:59;10.30;1.40
18392;DHT22;9322;50.932;5.318;2023-12-28T08:34:25;10.40;1.40
18392;DHT22;9322;50.932;5.318;2023-12-28T08:36:51;10.40;1.40
18392;DHT22;9322;50.932;5.318;2023-12-28T08:39:18;10.60;1.40
18392;DHT22;9322;50.932;5.318;2023-12-28T08:41:43;10.90;1.40
18392;DHT22;9322;50.932;5.318;2023-12-28T08:44:09;11.30;1.40
18392;DHT22;9322;50.932;5.318;2023-12-28T08:46:35;11.70;1.40
18392;DHT22;9322;50.932;5.318;2023-12-28T08:49:01;11.90;1.40
18392;DHT22;9322;50.932;5.318;2023-12-28T08:51:27;11.80;1.40
18392;DHT22;9322;50.932;5.318;2023-12-28T08:53:52;11.70;1.40
18392;DHT22;9322;50.932;5.318;2023-12-28T08:56:22;11.60;1.40
18392;DHT22;9322;50.932;5.318;2023-12-28T08:58:48;11.30;1.40
18392;DHT22;9322;50.932;5.318;2023-12-28T09:01:22;11.30;1.40
18392;DHT22;9322;50.932;5.318;2023-12-28T09:03:49;11.60;1.40
18392;DHT22;9322;50.932;5.318;2023-12-28T09:06:18;11.60;1.40
18392;DHT22;9322;50.932;5.318;2023-12-28T09:08:49;12.00;1.40
18392;DHT22;9322;50.932;5.318;2023-12-28T09:11:16;12.30;1.40
18392;DHT22;9322;50.932;5.318;2023-12-28T09:13:42;12.80;1.40
18392;DHT22;9322;50.932;5.318;2023-12-28T09:16:10;12.80;1.40
18392;DHT22;9322;50.932;5.318;2023-12-28T09:18:37;12.90;1.40
18392;DHT22;9322;50.932;5.318;2023-12-28T09:21:03;12.30;1.40
18392;DHT22;9322;50.932;5.318;2023-12-28T09:23:31;11.70;1.40
18392;DHT22;9322;50.932;5.318;2023-12-28T09:25:58;11.60;1.40
18392;DHT22;9322;50.932;5.318;2023-12-28T09:28:23;11.60;1.40
18392;DHT22;9322;50.932;5.318;2023-12-28T09:30:49;11.60;1.40
18392;DHT22;9322;50.932;5.318;2023-12-28T09:33:15;11.50;1.40
18392;DHT22;9322;50.932;5.318;2023-12-28T09:35:42;11.40;1.40
18392;DHT22;9322;50.932;5.318;2023-12-28T09:38:08;11.20;1.40
18392;DHT22;9322;50.932;5.318;2023-12-28T09:40:35;11.30;1.40
18392;DHT22;9322;50.932;5.318;2023-12-28T09:45:47;11.40;1.40
18392;DHT22;9322;50.932;5.318;2023-12-28T09:48:18;11.40;1.40
18392;DHT22;9322;50.932;5.318;2023-12-28T09:50:45;11.40;1.40
18392;DHT22;9322;50.932;5.318;2023-12-28T09:53:12;11.40;1.40
18392;DHT22;9322;50.932;5.318;2023-12-28T09:55:38;12.00;1.40
18392;DHT22;9322;50.932;5.318;2023-12-28T09:58:04;12.60;1.40
18392;DHT22;9322;50.932;5.318;2023-12-28T10:00:31;13.10;1.40
18392;DHT22;9322;50.932;5.318;2023-12-28T10:02:57;13.50;1.40
18392;DHT22;9322;50.932;5.318;2023-12-28T10:05:23;13.90;1.40
18392;DHT22;9322;50.932;5.318;2023-12-28T10:07:50;14.20;1.40
18392;DHT22;9322;50.932;5.318;2023-12-28T10:10:16;13.90;1.40
18392;DHT22;9322;50.932;5.318;2023-12-28T10:12:42;13.80;1.40
18392;DHT22;9322;50.932;5.318;2023-12-28T10:15:09;14.00;1.40
18392;DHT22;9322;50.932;5.318;2023-12-28T10:17:35;14.30;1.40
18392;DHT22;9322;50.932;5.318;2023-12-28T10:20:04;14.20;1.40
18392;DHT22;9322;50.932;5.318;2023-12-28T10:22:31;14.00;1.40
18392;DHT22;9322;50.932;5.318;2023-12-28T10:24:58;14.20;1.40
18392;DHT22;9322;50.932;5.318;2023-12-28T10:27:28;14.20;1.40
18392;DHT22;9322;50.932;5.318;2023-12-28T10:29:57;13.90;1.40
18392;DHT22;9322;50.932;5.318;2023-12-28T10:32:23;14.50;1.40
18392;DHT22;9322;50.932;5.318;2023-12-28T10:34:52;14.00;1.40
18392;DHT22;9322;50.932;5.318;2023-12-28T10:37:20;14.00;1.40
18392;DHT22;9322;50.932;5.318;2023-12-28T10:39:47;14.40;1.40
18392;DHT22;9322;50.932;5.318;2023-12-28T10:42:21;14.40;1.40
18392;DHT22;9322;50.932;5.318;2023-12-28T10:44:53;14.20;1.40
18392;DHT22;9322;50.932;5.318;2023-12-28T10:47:22;13.80;1.40
18392;DHT22;9322;50.932;5.318;2023-12-28T10:49:52;13.90;1.40
18392;DHT22;9322;50.932;5.318;2023-12-28T10:52:21;14.00;1.40
18392;DHT22;9322;50.932;5.318;2023-12-28T11:00:25;13.70;1.40
18392;DHT22;9322;50.932;5.318;2023-12-28T11:02:58;14.20;1.40
18392;DHT22;9322;50.932;5.318;2023-12-28T11:05:29;14.20;1.40
18392;DHT22;9322;50.932;5.318;2023-12-28T11:07:55;14.40;1.40
18392;DHT22;9322;50.932;5.318;2023-12-28T11:10:24;14.40;1.40
18392;DHT22;9322;50.932;5.318;2023-12-28T11:12:52;14.40;1.40
18392;DHT22;9322;50.932;5.318;2023-12-28T11:15:19;14.50;1.40
18392;DHT22;9322;50.932;5.318;2023-12-28T11:17:45;14.30;1.40
18392;DHT22;9322;50.932;5.318;2023-12-28T11:20:11;13.90;1.40
18392;DHT22;9322;50.932;5.318;2023-12-28T11:22:39;13.80;1.40
18392;DHT22;9322;50.932;5.318;2023-12-28T11:25:05;13.80;1.40
18392;DHT22;9322;50.932;5.318;2023-12-28T11:27:35;14.30;1.40
18392;DHT22;9322;50.932;5.318;2023-12-28T11:30:01;14.50;1.40
18392;DHT22;9322;50.932;5.318;2023-12-28T11:32:28;14.90;1.40
18392;DHT22;9322;50.932;5.318;2023-12-28T11:34:57;14.70;1.40
18392;DHT22;9322;50.932;5.318;2023-12-28T11:37:27;14.40;1.40
18392;DHT22;9322;50.932;5.318;2023-12-28T11:39:54;14.50;1.40
18392;DHT22;9322;50.932;5.318;2023-12-28T11:42:23;14.20;1.40
18392;DHT22;9322;50.932;5.318;2023-12-28T11:44:56;13.90;1.40
18392;DHT22;9322;50.932;5.318;2023-12-28T11:47:26;13.90;1.40
18392;DHT22;9322;50.932;5.318;2023-12-28T11:49:54;13.60;1.40
18392;DHT22;9322;50.932;5.318;2023-12-28T11:52:27;13.20;1.40
18392;DHT22;9322;50.932;5.318;2023-12-28T11:54:54;13.20;1.40
18392;DHT22;9322;50.932;5.318;2023-12-28T11:57:20;13.10;1.40
18392;DHT22;9322;50.932;5.318;2023-12-28T11:59:45;13.00;1.40
18392;DHT22;9322;50.932;5.318;2023-12-28T12:02:12;13.20;1.40
18392;DHT22;9322;50.932;5.318;2023-12-28T12:04:39;13.10;1.40
18392;DHT22;9322;50.932;5.318;2023-12-28T12:07:05;12.90;1.40
18392;DHT22;9322;50.932;5.318;2023-12-28T12:09:31;12.90;1.40
18392;DHT22;9322;50.932;5.318;2023-12-28T12:12:04;13.10;1.40
18392;DHT22;9322;50.932;5.318;2023-12-28T12:14:30;12.90;1.40
18392;DHT22;9322;50.932;5.318;2023-12-28T12:16:57;12.80;1.40
18392;DHT22;9322;50.932;5.318;2023-12-28T12:19:24;12.70;1.40
18392;DHT22;9322;50.932;5.318;2023-12-28T12:21:55;12.70;1.40
18392;DHT22;9322;50.932;5.318;2023-12-28T12:24:21;12.80;1.40
18392;DHT22;9322;50.932;5.318;2023-12-28T12:26:47;12.70;1.40
18392;DHT22;9322;50.932;5.318;2023-12-28T12:29:14;12.70;1.40
18392;DHT22;9322;50.932;5.318;2023-12-28T12:31:40;12.50;1.40
18392;DHT22;9322;50.932;5.318;2023-12-28T12:34:11;12.80;1.40
18392;DHT22;9322;50.932;5.318;2023-12-28T12:36:37;13.10;1.40
18392;DHT22;9322;50.932;5.318;2023-12-28T12:39:03;13.00;1.40
18392;DHT22;9322;50.932;5.318;2023-12-28T12:41:33;12.80;1.40
18392;DHT22;9322;50.932;5.318;2023-12-28T12:43:59;12.60;1.40
18392;DHT22;9322;50.932;5.318;2023-12-28T12:46:25;12.70;1.40
18392;DHT22;9322;50.932;5.318;2023-12-28T12:48:55;12.60;1.40
18392;DHT22;9322;50.932;5.318;2023-12-28T12:51:21;12.60;1.40
18392;DHT22;9322;50.932;5.318;2023-12-28T12:53:47;12.80;1.40
18392;DHT22;9322;50.932;5.318;2023-12-28T12:56:13;12.80;1.40
18392;DHT22;9322;50.932;5.318;2023-12-28T12:58:39;12.60;1.40
18392;DHT22;9322;50.932;5.318;2023-12-28T13:01:05;12.60;1.40
18392;DHT22;9322;50.932;5.318;2023-12-28T13:03:30;12.40;1.40
18392;DHT22;9322;50.932;5.318;2023-12-28T13:05:56;12.30;1.40
18392;DHT22;9322;50.932;5.318;2023-12-28T13:08:23;12.40;1.40
18392;DHT22;9322;50.932;5.318;2023-12-28T13:10:48;12.40;1.40
18392;DHT22;9322;50.932;5.318;2023-12-28T13:13:15;12.50;1.40
18392;DHT22;9322;50.932;5.318;2023-12-28T13:15:41;12.60;1.40
18392;DHT22;9322;50.932;5.318;2023-12-28T13:18:07;12.50;1.40
18392;DHT22;9322;50.932;5.318;2023-12-28T13:20:33;12.50;1.40
18392;DHT22;9322;50.932;5.318;2023-12-28T13:22:58;12.60;1.40
18392;DHT22;9322;50.932;5.318;2023-12-28T13:25:25;12.60;1.40
18392;DHT22;9322;50.932;5.318;2023-12-28T13:27:50;12.50;1.40
18392;DHT22;9322;50.932;5.318;2023-12-28T13:30:16;12.30;1.40
18392;DHT22;9322;50.932;5.318;2023-12-28T13:32:42;12.30;1.40
18392;DHT22;9322;50.932;5.318;2023-12-28T13:35:08;12.30;1.40
18392;DHT22;9322;50.932;5.318;2023-12-28T13:37:33;12.30;1.40
18392;DHT22;9322;50.932;5.318;2023-12-28T13:39:59;12.40;1.40
18392;DHT22;9322;50.932;5.318;2023-12-28T13:42:25;12.20;1.40
18392;DHT22;9322;50.932;5.318;2023-12-28T13:44:50;12.30;1.40
18392;DHT22;9322;50.932;5.318;2023-12-28T13:47:17;12.20;1.40
18392;DHT22;9322;50.932;5.318;2023-12-28T13:49:42;12.20;1.40
18392;DHT22;9322;50.932;5.318;2023-12-28T13:52:08;12.20;1.40
18392;DHT22;9322;50.932;5.318;2023-12-28T13:54:34;12.20;1.40
18392;DHT22;9322;50.932;5.318;2023-12-28T13:57:00;12.30;1.40
18392;DHT22;9322;50.932;5.318;2023-12-28T13:59:26;12.20;1.40
18392;DHT22;9322;50.932;5.318;2023-12-28T14:01:51;12.20;1.40
18392;DHT22;9322;50.932;5.318;2023-12-28T14:04:17;12.00;1.40
18392;DHT22;9322;50.932;5.318;2023-12-28T14:06:43;12.00;1.40
18392;DHT22;9322;50.932;5.318;2023-12-28T14:09:08;11.90;1.40
18392;DHT22;9322;50.932;5.318;2023-12-28T14:11:34;11.90;1.40
18392;DHT22;9322;50.932;5.318;2023-12-28T14:14:00;12.00;1.40
18392;DHT22;9322;50.932;5.318;2023-12-28T14:16:26;11.90;1.40
18392;DHT22;9322;50.932;5.318;2023-12-28T14:18:51;12.00;1.40
18392;DHT22;9322;50.932;5.318;2023-12-28T14:21:18;11.90;1.40
18392;DHT22;9322;50.932;5.318;2023-12-28T14:23:44;12.00;1.40
18392;DHT22;9322;50.932;5.318;2023-12-28T14:26:14;12.10;1.40
18392;DHT22;9322;50.932;5.318;2023-12-28T14:28:43;11.90;1.40
18392;DHT22;9322;50.932;5.318;2023-12-28T14:31:10;11.90;1.40
18392;DHT22;9322;50.932;5.318;2023-12-28T14:33:37;11.80;1.40
18392;DHT22;9322;50.932;5.318;2023-12-28T14:36:50;11.90;1.40
18392;DHT22;9322;50.932;5.318;2023-12-28T14:38:59;11.90;1.40
18392;DHT22;9322;50.932;5.318;2023-12-28T14:41:24;11.80;1.40
18392;DHT22;9322;50.932;5.318;2023-12-28T14:43:50;11.60;1.40
18392;DHT22;9322;50.932;5.318;2023-12-28T14:46:16;11.70;1.40
18392;DHT22;9322;50.932;5.318;2023-12-28T14:48:42;11.70;1.40
18392;DHT22;9322;50.932;5.318;2023-12-28T14:51:07;11.60;1.40
18392;DHT22;9322;50.932;5.318;2023-12-28T14:53:33;11.70;1.40
18392;DHT22;9322;50.932;5.318;2023-12-28T14:55:59;11.50;1.40
18392;DHT22;9322;50.932;5.318;2023-12-28T14:58:25;11.60;1.40
18392;DHT22;9322;50.932;5.318;2023-12-28T15:00:52;11.60;1.40
18392;DHT22;9322;50.932;5.318;2023-12-28T15:03:19;11.50;1.40
18392;DHT22;9322;50.932;5.318;2023-12-28T15:05:45;11.50;1.40
18392;DHT22;9322;50.932;5.318;2023-12-28T15:08:11;11.50;1.40
18392;DHT22;9322;50.932;5.318;2023-12-28T15:10:37;11.40;1.40
18392;DHT22;9322;50.932;5.318;2023-12-28T15:13:03;11.40;1.40
18392;DHT22;9322;50.932;5.318;2023-12-28T15:15:29;11.40;1.40
18392;DHT22;9322;50.932;5.318;2023-12-28T15:17:55;11.30;1.40
18392;DHT22;9322;50.932;5.318;2023-12-28T15:20:23;11.30;1.40
18392;DHT22;9322;50.932;5.318;2023-12-28T15:22:49;11.30;1.40
18392;DHT22;9322;50.932;5.318;2023-12-28T15:25:15;11.30;1.40
18392;DHT22;9322;50.932;5.318;2023-12-28T15:27:41;11.20;1.40
18392;DHT22;9322;50.932;5.318;2023-12-28T15:30:07;11.20;1.40
18392;DHT22;9322;50.932;5.318;2023-12-28T15:32:33;11.20;1.40
18392;DHT22;9322;50.932;5.318;2023-12-28T15:34:59;11.10;1.40
18392;DHT22;9322;50.932;5.318;2023-12-28T15:37:27;11.10;1.40
18392;DHT22;9322;50.932;5.318;2023-12-28T15:39:53;11.10;1.40
18392;DHT22;9322;50.932;5.318;2023-12-28T15:42:18;11.10;1.40
18392;DHT22;9322;50.932;5.318;2023-12-28T15:44:44;11.00;1.40
18392;DHT22;9322;50.932;5.318;2023-12-28T15:47:10;11.10;1.40
18392;DHT22;9322;50.932;5.318;2023-12-28T15:49:36;11.00;1.40
18392;DHT22;9322;50.932;5.318;2023-12-28T15:52:02;11.10;1.40
18392;DHT22;9322;50.932;5.318;2023-12-28T15:54:28;11.00;1.40
18392;DHT22;9322;50.932;5.318;2023-12-28T15:56:53;11.00;1.40
18392;DHT22;9322;50.932;5.318;2023-12-28T15:59:19;10.90;1.40
18392;DHT22;9322;50.932;5.318;2023-12-28T16:01:45;10.90;1.40
18392;DHT22;9322;50.932;5.318;2023-12-28T16:04:10;10.90;1.40
18392;DHT22;9322;50.932;5.318;2023-12-28T16:06:36;10.90;1.40
18392;DHT22;9322;50.932;5.318;2023-12-28T16:09:02;11.00;1.40